sensor_id;sensor_type;location;lat;lon;timestamp;P1;durP1;ratioP1;P2;durP2;ratioP2
55710;SDS011;41612;51.994;5.880;2023-04-06T09:24:47;24.80;;;15.02;;
55710;SDS011;41612;51.994;5.880;2023-04-06T09:27:15;26.67;;;15.45;;
55710;SDS011;41612;51.994;5.880;2023-04-06T09:29:41;23.70;;;14.57;;
55710;SDS011;41612;51.994;5.880;2023-04-06T09:32:08;24.60;;;13.85;;
55710;SDS011;41612;51.994;5.880;2023-04-06T09:34:36;22.40;;;14.40;;
55710;SDS011;41612;51.994;5.880;2023-04-06T09:37:13;23.02;;;14.80;;
55710;SDS011;41612;51.994;5.880;2023-04-06T09:39:43;26.33;;;16.15;;
55710;SDS011;41612;51.994;5.880;2023-04-06T09:42:09;24.98;;;16.02;;
55710;SDS011;41612;51.994;5.880;2023-04-06T09:44:35;25.52;;;16.02;;
55710;SDS011;41612;51.994;5.880;2023-04-06T09:47:00;26.52;;;16.65;;
55710;SDS011;41612;51.994;5.880;2023-04-06T09:49:31;25.92;;;16.15;;
55710;SDS011;41612;51.994;5.880;2023-04-06T09:52:04;26.27;;;16.52;;
55710;SDS011;41612;51.994;5.880;2023-04-06T09:54:33;27.70;;;15.65;;
55710;SDS011;41612;51.994;5.880;2023-04-06T09:57:03;27.27;;;16.67;;
55710;SDS011;41612;51.994;5.880;2023-04-06T09:59:58;26.85;;;16.83;;
55710;SDS011;41612;51.994;5.880;2023-04-06T10:02:47;28.70;;;17.73;;
55710;SDS011;41612;51.994;5.880;2023-04-06T10:06:04;32.42;;;18.80;;
55710;SDS011;41612;51.994;5.880;2023-04-06T10:08:28;19.60;;;12.95;;
55710;SDS011;41612;51.994;5.880;2023-04-06T10:10:57;24.75;;;15.88;;
55710;SDS011;41612;51.994;5.880;2023-04-06T10:13:23;33.72;;;18.70;;
55710;SDS011;41612;51.994;5.880;2023-04-06T10:15:50;26.95;;;17.30;;
55710;SDS011;41612;51.994;5.880;2023-04-06T10:18:17;26.42;;;13.63;;
55710;SDS011;41612;51.994;5.880;2023-04-06T10:20:47;29.05;;;17.02;;
55710;SDS011;41612;51.994;5.880;2023-04-06T10:26:03;28.55;;;16.40;;
55710;SDS011;41612;51.994;5.880;2023-04-06T10:28:33;22.50;;;14.48;;
55710;SDS011;41612;51.994;5.880;2023-04-06T10:31:04;22.25;;;13.55;;
55710;SDS011;41612;51.994;5.880;2023-04-06T10:33:30;25.50;;;14.95;;
55710;SDS011;41612;51.994;5.880;2023-04-06T10:35:56;25.33;;;16.33;;
55710;SDS011;41612;51.994;5.880;2023-04-06T10:38:34;27.38;;;15.57;;
55710;SDS011;41612;51.994;5.880;2023-04-06T10:41:09;24.30;;;13.68;;
55710;SDS011;41612;51.994;5.880;2023-04-06T10:43:37;25.60;;;15.23;;
55710;SDS011;41612;51.994;5.880;2023-04-06T10:46:04;21.50;;;14.63;;
55710;SDS011;41612;51.994;5.880;2023-04-06T10:48:38;25.45;;;15.55;;
55710;SDS011;41612;51.994;5.880;2023-04-06T10:51:09;24.52;;;16.50;;
55710;SDS011;41612;51.994;5.880;2023-04-06T10:53:36;25.17;;;15.98;;
55710;SDS011;41612;51.994;5.880;2023-04-06T10:56:03;22.40;;;14.43;;
55710;SDS011;41612;51.994;5.880;2023-04-06T10:58:34;17.65;;;11.68;;
55710;SDS011;41612;51.994;5.880;2023-04-06T11:00:59;19.48;;;12.75;;
55710;SDS011;41612;51.994;5.880;2023-04-06T11:03:25;24.83;;;14.40;;
55710;SDS011;41612;51.994;5.880;2023-04-06T11:05:52;18.48;;;12.52;;
55710;SDS011;41612;51.994;5.880;2023-04-06T11:08:25;15.85;;;12.38;;
55710;SDS011;41612;51.994;5.880;2023-04-06T11:10:51;19.83;;;12.88;;
55710;SDS011;41612;51.994;5.880;2023-04-06T11:13:23;20.00;;;13.35;;
55710;SDS011;41612;51.994;5.880;2023-04-06T11:15:54;19.35;;;13.40;;
55710;SDS011;41612;51.994;5.880;2023-04-06T11:18:20;15.75;;;12.23;;
55710;SDS011;41612;51.994;5.880;2023-04-06T11:20:49;19.70;;;13.30;;
55710;SDS011;41612;51.994;5.880;2023-04-06T11:23:21;18.15;;;12.57;;
55710;SDS011;41612;51.994;5.880;2023-04-06T11:25:50;20.58;;;13.23;;
55710;SDS011;41612;51.994;5.880;2023-04-06T11:28:16;21.23;;;13.43;;
55710;SDS011;41612;51.994;5.880;2023-04-06T11:30:45;23.98;;;13.23;;
55710;SDS011;41612;51.994;5.880;2023-04-06T11:33:19;19.58;;;12.57;;
55710;SDS011;41612;51.994;5.880;2023-04-06T11:35:46;19.23;;;10.52;;
55710;SDS011;41612;51.994;5.880;2023-04-06T11:38:16;21.58;;;13.27;;
55710;SDS011;41612;51.994;5.880;2023-04-06T11:40:52;21.98;;;11.90;;
55710;SDS011;41612;51.994;5.880;2023-04-06T11:43:35;14.25;;;9.73;;
55710;SDS011;41612;51.994;5.880;2023-04-06T11:46:01;19.95;;;12.70;;
55710;SDS011;41612;51.994;5.880;2023-04-06T11:48:30;17.50;;;12.05;;
55710;SDS011;41612;51.994;5.880;2023-04-06T11:50:59;19.85;;;10.77;;
55710;SDS011;41612;51.994;5.880;2023-04-06T11:53:29;16.45;;;10.98;;
55710;SDS011;41612;51.994;5.880;2023-04-06T11:55:58;22.92;;;12.93;;
55710;SDS011;41612;51.994;5.880;2023-04-06T11:58:24;16.55;;;11.70;;
55710;SDS011;41612;51.994;5.880;2023-04-06T12:00:52;16.10;;;11.40;;
55710;SDS011;41612;51.994;5.880;2023-04-06T12:03:18;21.42;;;13.35;;
55710;SDS011;41612;51.994;5.880;2023-04-06T12:05:44;16.75;;;11.02;;
55710;SDS011;41612;51.994;5.880;2023-04-06T12:08:10;17.67;;;9.90;;
55710;SDS011;41612;51.994;5.880;2023-04-06T12:10:36;15.73;;;9.35;;
55710;SDS011;41612;51.994;5.880;2023-04-06T12:13:01;15.23;;;10.35;;
55710;SDS011;41612;51.994;5.880;2023-04-06T12:15:27;12.45;;;9.60;;
55710;SDS011;41612;51.994;5.880;2023-04-06T12:17:53;16.95;;;8.95;;
55710;SDS011;41612;51.994;5.880;2023-04-06T12:20:19;16.35;;;9.23;;
55710;SDS011;41612;51.994;5.880;2023-04-06T12:22:45;13.00;;;8.95;;
55710;SDS011;41612;51.994;5.880;2023-04-06T12:25:10;13.30;;;8.90;;
55710;SDS011;41612;51.994;5.880;2023-04-06T12:27:37;13.30;;;9.63;;
55710;SDS011;41612;51.994;5.880;2023-04-06T12:30:02;14.95;;;9.50;;
55710;SDS011;41612;51.994;5.880;2023-04-06T12:32:28;13.02;;;8.60;;
55710;SDS011;41612;51.994;5.880;2023-04-06T12:34:54;14.02;;;9.35;;
55710;SDS011;41612;51.994;5.880;2023-04-06T12:37:20;16.33;;;9.27;;
55710;SDS011;41612;51.994;5.880;2023-04-06T12:39:46;14.60;;;9.27;;
55710;SDS011;41612;51.994;5.880;2023-04-06T12:42:12;12.98;;;8.32;;
55710;SDS011;41612;51.994;5.880;2023-04-06T12:44:38;12.55;;;8.50;;
55710;SDS011;41612;51.994;5.880;2023-04-06T12:47:04;14.05;;;8.25;;
55710;SDS011;41612;51.994;5.880;2023-04-06T12:49:32;14.68;;;8.35;;
55710;SDS011;41612;51.994;5.880;2023-04-06T12:51:58;13.68;;;7.75;;
55710;SDS011;41612;51.994;5.880;2023-04-06T12:54:23;12.20;;;7.68;;
55710;SDS011;41612;51.994;5.880;2023-04-06T12:56:51;13.02;;;8.43;;
55710;SDS011;41612;51.994;5.880;2023-04-06T12:59:17;13.63;;;8.07;;
55710;SDS011;41612;51.994;5.880;2023-04-06T13:01:43;12.98;;;7.47;;
55710;SDS011;41612;51.994;5.880;2023-04-06T13:04:09;11.43;;;7.03;;
55710;SDS011;41612;51.994;5.880;2023-04-06T13:06:35;11.13;;;6.82;;
55710;SDS011;41612;51.994;5.880;2023-04-06T13:09:01;10.43;;;6.93;;
55710;SDS011;41612;51.994;5.880;2023-04-06T13:11:26;11.43;;;7.45;;
55710;SDS011;41612;51.994;5.880;2023-04-06T13:13:52;13.68;;;6.85;;
55710;SDS011;41612;51.994;5.880;2023-04-06T13:16:18;13.70;;;7.18;;
55710;SDS011;41612;51.994;5.880;2023-04-06T13:18:44;10.65;;;6.47;;
55710;SDS011;41612;51.994;5.880;2023-04-06T13:21:12;10.90;;;7.20;;
55710;SDS011;41612;51.994;5.880;2023-04-06T13:23:40;11.07;;;6.80;;
55710;SDS011;41612;51.994;5.880;2023-04-06T13:26:06;12.27;;;7.43;;
55710;SDS011;41612;51.994;5.880;2023-04-06T13:28:36;12.20;;;7.57;;
55710;SDS011;41612;51.994;5.880;2023-04-06T13:31:03;12.02;;;7.70;;
55710;SDS011;41612;51.994;5.880;2023-04-06T13:33:30;12.57;;;7.72;;
55710;SDS011;41612;51.994;5.880;2023-04-06T13:35:56;14.50;;;8.50;;
55710;SDS011;41612;51.994;5.880;2023-04-06T13:38:22;11.20;;;7.95;;
55710;SDS011;41612;51.994;5.880;2023-04-06T13:40:51;16.55;;;8.90;;
55710;SDS011;41612;51.994;5.880;2023-04-06T13:43:17;16.88;;;8.40;;
55710;SDS011;41612;51.994;5.880;2023-04-06T13:45:49;12.43;;;8.27;;
55710;SDS011;41612;51.994;5.880;2023-04-06T13:48:16;14.35;;;8.82;;
55710;SDS011;41612;51.994;5.880;2023-04-06T13:50:42;12.90;;;8.98;;
55710;SDS011;41612;51.994;5.880;2023-04-06T13:53:10;13.48;;;8.23;;
55710;SDS011;41612;51.994;5.880;2023-04-06T13:55:35;13.38;;;9.15;;
55710;SDS011;41612;51.994;5.880;2023-04-06T13:58:01;13.90;;;9.05;;
55710;SDS011;41612;51.994;5.880;2023-04-06T14:00:27;16.90;;;9.68;;
55710;SDS011;41612;51.994;5.880;2023-04-06T14:02:53;16.23;;;9.70;;
55710;SDS011;41612;51.994;5.880;2023-04-06T14:05:20;13.95;;;8.70;;
55710;SDS011;41612;51.994;5.880;2023-04-06T14:07:47;14.60;;;9.35;;
55710;SDS011;41612;51.994;5.880;2023-04-06T14:10:13;14.60;;;9.77;;
55710;SDS011;41612;51.994;5.880;2023-04-06T14:12:40;19.38;;;11.23;;
55710;SDS011;41612;51.994;5.880;2023-04-06T14:15:12;15.43;;;10.48;;
55710;SDS011;41612;51.994;5.880;2023-04-06T14:17:38;18.65;;;11.63;;
55710;SDS011;41612;51.994;5.880;2023-04-06T14:20:05;17.38;;;10.57;;
55710;SDS011;41612;51.994;5.880;2023-04-06T14:22:31;20.10;;;12.85;;
55710;SDS011;41612;51.994;5.880;2023-04-06T14:24:57;17.30;;;10.65;;
55710;SDS011;41612;51.994;5.880;2023-04-06T14:27:23;16.63;;;10.70;;
55710;SDS011;41612;51.994;5.880;2023-04-06T14:29:49;17.77;;;10.88;;
55710;SDS011;41612;51.994;5.880;2023-04-06T14:32:16;18.33;;;11.43;;
55710;SDS011;41612;51.994;5.880;2023-04-06T14:34:42;16.00;;;10.20;;
55710;SDS011;41612;51.994;5.880;2023-04-06T14:37:08;16.60;;;11.68;;
55710;SDS011;41612;51.994;5.880;2023-04-06T14:39:33;20.02;;;12.40;;
55710;SDS011;41612;51.994;5.880;2023-04-06T14:41:59;16.92;;;12.77;;
55710;SDS011;41612;51.994;5.880;2023-04-06T14:44:26;18.20;;;12.25;;
55710;SDS011;41612;51.994;5.880;2023-04-06T14:46:51;19.17;;;13.02;;
55710;SDS011;41612;51.994;5.880;2023-04-06T14:49:17;16.90;;;11.27;;
55710;SDS011;41612;51.994;5.880;2023-04-06T14:51:44;15.70;;;10.20;;
55710;SDS011;41612;51.994;5.880;2023-04-06T14:54:10;22.08;;;12.50;;
55710;SDS011;41612;51.994;5.880;2023-04-06T14:56:36;19.63;;;11.13;;
55710;SDS011;41612;51.994;5.880;2023-04-06T14:59:03;19.27;;;11.65;;
55710;SDS011;41612;51.994;5.880;2023-04-06T15:01:33;19.60;;;12.30;;
55710;SDS011;41612;51.994;5.880;2023-04-06T15:04:02;20.17;;;12.45;;
55710;SDS011;41612;51.994;5.880;2023-04-06T15:06:28;17.85;;;10.23;;
55710;SDS011;41612;51.994;5.880;2023-04-06T15:09:01;18.88;;;12.23;;
55710;SDS011;41612;51.994;5.880;2023-04-06T15:12:10;19.65;;;11.63;;
